createdAt,value
2023-04-27T00:00:44.106Z,11.07
2023-04-27T00:03:47.495Z,11.50
2023-04-27T00:06:51.669Z,11.33
2023-04-27T00:09:56.223Z,11.47
2023-04-27T00:12:59.318Z,10.40
2023-04-27T00:16:03.964Z,10.50
2023-04-27T00:19:08.704Z,10.87
2023-04-27T00:22:12.172Z,9.93
2023-04-27T00:25:16.685Z,10.30
2023-04-27T00:28:19.723Z,9.97
2023-04-27T00:31:22.783Z,9.93
2023-04-27T00:34:25.900Z,10.27
2023-04-27T00:37:28.961Z,9.27
2023-04-27T00:40:33.420Z,8.83
2023-04-27T00:43:43.775Z,8.90
2023-04-27T00:46:46.871Z,7.97
2023-04-27T00:49:50.589Z,8.47
2023-04-27T00:52:53.654Z,8.70
2023-04-27T00:55:58.769Z,8.00
2023-04-27T00:59:02.116Z,7.83
2023-04-27T01:02:05.244Z,7.63
2023-04-27T01:05:09.059Z,7.57
2023-04-27T01:08:12.112Z,7.43
2023-04-27T01:11:16.911Z,7.13
2023-04-27T01:14:19.938Z,6.50
2023-04-27T01:17:23.267Z,6.73
2023-04-27T01:20:27.256Z,6.30
2023-04-27T01:23:31.731Z,7.00
2023-04-27T01:26:35.095Z,6.37
2023-04-27T01:29:38.228Z,6.30
2023-04-27T01:32:41.604Z,6.10
2023-04-27T01:35:44.748Z,5.77
2023-04-27T01:38:49.213Z,6.13
2023-04-27T01:41:52.278Z,5.47
2023-04-27T01:44:55.395Z,4.80
2023-04-27T01:47:58.596Z,4.60
2023-04-27T01:51:02.065Z,5.00
2023-04-27T01:54:06.665Z,5.07
2023-04-27T01:57:09.759Z,5.27
2023-04-27T02:00:14.045Z,5.17
2023-04-27T02:03:17.347Z,4.57
2023-04-27T02:06:20.634Z,5.27
2023-04-27T02:09:25.210Z,4.60
2023-04-27T02:12:28.368Z,3.80
2023-04-27T02:15:31.437Z,4.40
2023-04-27T02:18:35.169Z,4.50
2023-04-27T02:21:38.348Z,4.13
2023-04-27T02:24:42.865Z,3.80
2023-04-27T02:27:45.894Z,3.87
2023-04-27T02:30:49.625Z,3.60
2023-04-27T02:33:52.802Z,3.70
2023-04-27T02:36:55.845Z,3.93
2023-04-27T02:40:00.947Z,3.90
2023-04-27T02:43:04.053Z,4.40
2023-04-27T02:46:07.334Z,3.80
2023-04-27T02:49:10.428Z,3.37
2023-04-27T02:52:13.744Z,3.40
2023-04-27T02:55:18.387Z,3.20
2023-04-27T02:58:22.775Z,3.53
2023-04-27T03:01:25.919Z,3.50
2023-04-27T03:04:29.111Z,3.10
2023-04-27T03:07:32.203Z,3.20
2023-04-27T03:10:36.720Z,3.00
2023-04-27T03:13:42.601Z,3.60
2023-04-27T03:16:45.867Z,3.20
2023-04-27T03:19:49.586Z,2.90
2023-04-27T03:22:52.617Z,3.30
2023-04-27T03:25:57.089Z,3.37
2023-04-27T03:29:00.185Z,6.63
2023-04-27T03:32:04.556Z,9.90
2023-04-27T03:35:09.175Z,11.23
2023-04-27T03:38:12.304Z,10.47
2023-04-27T03:41:16.766Z,8.90
2023-04-27T03:44:19.887Z,8.43
2023-04-27T03:47:22.991Z,8.40
2023-04-27T03:50:26.425Z,8.27
2023-04-27T03:53:30.747Z,7.70
2023-04-27T03:56:35.298Z,7.37
2023-04-27T03:59:38.279Z,6.57
2023-04-27T04:02:42.338Z,6.90
2023-04-27T04:05:47.317Z,6.70
2023-04-27T04:08:50.504Z,6.00
2023-04-27T04:11:54.934Z,4.40
2023-04-27T04:14:57.715Z,4.30
2023-04-27T04:18:01.275Z,4.40
2023-04-27T04:21:04.984Z,3.70
2023-04-27T04:24:10.296Z,3.50
2023-04-27T04:27:14.744Z,2.93
2023-04-27T04:30:18.142Z,3.00
2023-04-27T04:33:21.608Z,3.33
2023-04-27T04:36:24.695Z,2.90
2023-04-27T04:39:32.103Z,3.23
2023-04-27T04:42:38.074Z,2.50
2023-04-27T04:45:42.119Z,3.20
2023-04-27T04:48:45.095Z,3.60
2023-04-27T04:51:48.116Z,2.93
2023-04-27T04:54:52.984Z,2.60
2023-04-27T04:57:57.478Z,2.70
2023-04-27T05:01:00.522Z,2.70
2023-04-27T05:04:03.790Z,2.57
2023-04-27T05:07:07.258Z,2.60
2023-04-27T05:10:10.682Z,2.60
2023-04-27T05:13:15.186Z,2.77
2023-04-27T05:16:18.280Z,2.87
2023-04-27T05:19:21.581Z,3.00
2023-04-27T05:22:24.576Z,2.70
2023-04-27T05:25:27.618Z,2.50
2023-04-27T05:28:32.044Z,2.40
2023-04-27T05:31:35.130Z,2.73
2023-04-27T05:34:38.206Z,2.50
2023-04-27T05:37:41.343Z,2.67
2023-04-27T05:40:44.564Z,2.37
2023-04-27T05:43:49.120Z,2.70
2023-04-27T05:46:52.179Z,2.70
2023-04-27T05:49:55.594Z,3.00
2023-04-27T05:52:58.644Z,2.10
2023-04-27T05:56:04.481Z,2.30
2023-04-27T05:59:08.998Z,2.50
2023-04-27T06:02:12.039Z,2.07
2023-04-27T06:05:15.313Z,2.80
2023-04-27T06:08:18.468Z,3.13
2023-04-27T06:11:22.209Z,2.70
2023-04-27T06:14:26.861Z,2.60
2023-04-27T06:17:29.889Z,2.40
2023-04-27T06:20:33.066Z,2.53
2023-04-27T06:23:36.163Z,1.90
2023-04-27T06:26:39.211Z,2.37
2023-04-27T06:29:43.659Z,2.83
2023-04-27T06:32:46.653Z,2.43
2023-04-27T06:35:49.875Z,2.47
2023-04-27T06:38:55.711Z,2.90
2023-04-27T06:41:58.849Z,2.73
2023-04-27T06:45:04.208Z,2.27
2023-04-27T06:48:07.445Z,2.40
2023-04-27T06:51:10.638Z,2.57
2023-04-27T06:54:13.845Z,2.50
2023-04-27T06:57:16.965Z,2.30
2023-04-27T07:00:21.864Z,2.40
2023-04-27T07:03:25.053Z,2.70
2023-04-27T07:06:28.828Z,2.43
2023-04-27T07:09:32.666Z,2.53
2023-04-27T07:12:36.479Z,2.33
2023-04-27T07:15:40.962Z,2.30
2023-04-27T07:18:44.171Z,2.40
2023-04-27T07:21:47.276Z,2.40
2023-04-27T07:24:50.378Z,2.60
2023-04-27T07:27:53.645Z,2.10
2023-04-27T07:30:59.026Z,2.50
2023-04-27T07:34:02.088Z,2.37
2023-04-27T07:37:05.639Z,2.50
2023-04-27T07:40:16.627Z,2.20
2023-04-27T07:43:20.375Z,2.40
2023-04-27T07:46:26.389Z,2.10
2023-04-27T07:49:29.547Z,2.20
2023-04-27T07:52:32.569Z,2.10
2023-04-27T07:55:36.207Z,2.33
2023-04-27T07:58:39.339Z,2.00
2023-04-27T08:01:43.792Z,2.20
2023-04-27T08:04:47.236Z,2.07
2023-04-27T08:07:54.183Z,2.23
2023-04-27T08:10:57.661Z,2.37
2023-04-27T08:14:00.689Z,1.90
2023-04-27T08:17:05.157Z,2.23
2023-04-27T08:20:09.883Z,1.97
2023-04-27T08:23:13.178Z,2.27
2023-04-27T08:26:16.690Z,1.93
2023-04-27T08:29:27.789Z,1.70
2023-04-27T08:32:33.211Z,1.97
2023-04-27T08:35:36.315Z,2.20
2023-04-27T08:38:39.313Z,1.77
2023-04-27T08:41:43.515Z,1.77
2023-04-27T08:44:46.844Z,2.13
2023-04-27T08:47:51.773Z,2.20
2023-04-27T08:50:57.193Z,2.03
2023-04-27T08:54:00.702Z,2.40
2023-04-27T08:57:10.669Z,1.90
2023-04-27T09:00:15.221Z,2.17
2023-04-27T09:03:25.839Z,2.20
2023-04-27T09:06:32.799Z,2.23
2023-04-27T09:09:35.868Z,2.10
2023-04-27T09:12:38.936Z,2.23
2023-04-27T09:15:48.272Z,1.87
2023-04-27T09:18:53.496Z,2.10
2023-04-27T09:22:15.559Z,2.30
2023-04-27T09:25:25.696Z,2.63
2023-04-27T09:28:30.940Z,2.03
2023-04-27T09:31:34.521Z,1.97
2023-04-27T09:34:42.239Z,2.27
2023-04-27T09:37:45.816Z,2.17
2023-04-27T09:40:49.578Z,2.17
2023-04-27T09:43:56.339Z,1.90
2023-04-27T09:47:01.428Z,2.17
2023-04-27T09:50:07.245Z,4.07
2023-04-27T09:53:13.864Z,2.90
2023-04-27T09:56:29.182Z,2.90
2023-04-27T09:59:56.758Z,2.73
2023-04-27T10:03:09.521Z,2.37
2023-04-27T10:07:06.023Z,2.50
2023-04-27T10:10:18.691Z,2.40
2023-04-27T10:13:23.988Z,2.00
2023-04-27T10:16:27.063Z,2.37
2023-04-27T10:19:30.345Z,1.90
2023-04-27T10:22:42.231Z,2.50
2023-04-27T10:25:48.005Z,2.60
2023-04-27T10:28:58.995Z,1.90
2023-04-27T10:32:07.836Z,2.10
2023-04-27T10:35:11.094Z,2.10
2023-04-27T10:38:19.632Z,2.20
2023-04-27T10:41:23.629Z,2.13
2023-04-27T10:44:28.874Z,2.67
2023-04-27T10:47:40.308Z,2.20
2023-04-27T10:50:44.915Z,2.03
2023-04-27T10:53:53.827Z,2.40
2023-04-27T10:57:04.160Z,2.10
2023-04-27T11:00:10.303Z,2.40
2023-04-27T11:03:16.823Z,2.40
2023-04-27T11:06:20.258Z,2.20
2023-04-27T11:09:31.188Z,1.93
2023-04-27T11:12:34.342Z,2.30
2023-04-27T11:15:45.468Z,2.80
2023-04-27T11:18:48.728Z,2.20
2023-04-27T11:21:51.783Z,2.50
2023-04-27T11:24:56.467Z,2.00
2023-04-27T11:27:59.499Z,2.50
2023-04-27T11:31:02.945Z,2.00
2023-04-27T11:34:07.590Z,2.10
2023-04-27T11:37:18.360Z,1.90
2023-04-27T11:40:24.585Z,2.40
2023-04-27T11:43:27.925Z,2.20
2023-04-27T11:46:31.356Z,2.10
2023-04-27T11:49:34.561Z,2.50
2023-04-27T11:52:39.393Z,2.20
2023-04-27T11:55:45.103Z,2.20
2023-04-27T11:58:48.422Z,2.07
2023-04-27T12:01:52.874Z,2.37
2023-04-27T12:04:56.092Z,2.10
2023-04-27T12:07:59.530Z,2.13
2023-04-27T12:11:04.040Z,2.00
2023-04-27T12:14:07.360Z,2.27
2023-04-27T12:17:10.574Z,2.13
2023-04-27T12:20:14.706Z,2.80
2023-04-27T12:23:17.716Z,2.50
2023-04-27T12:26:22.263Z,2.17
2023-04-27T12:29:25.514Z,2.20
2023-04-27T12:32:28.782Z,2.40
2023-04-27T12:35:32.206Z,3.30
2023-04-27T12:38:35.344Z,3.00
2023-04-27T12:41:39.784Z,3.07
2023-04-27T12:44:42.862Z,2.90
2023-04-27T12:48:00.842Z,2.63
2023-04-27T12:51:06.795Z,2.60
2023-04-27T12:54:11.318Z,2.80
2023-04-27T12:57:15.796Z,2.40
2023-04-27T13:00:19.243Z,2.57
2023-04-27T13:03:22.358Z,2.40
2023-04-27T13:06:27.156Z,2.70
2023-04-27T13:09:30.297Z,2.50
2023-04-27T13:12:34.951Z,2.20
2023-04-27T13:15:38.828Z,2.70
2023-04-27T13:18:48.469Z,2.27
2023-04-27T13:21:51.663Z,2.47
2023-04-27T13:24:54.761Z,2.53
2023-04-27T13:27:59.334Z,2.50
2023-04-27T13:31:02.463Z,2.27
2023-04-27T13:34:06.183Z,2.60
2023-04-27T13:37:09.414Z,2.20
2023-04-27T13:40:13.029Z,1.97
2023-04-27T13:43:17.533Z,1.90
2023-04-27T13:46:20.642Z,2.20
2023-04-27T13:49:24.067Z,2.40
2023-04-27T13:52:27.188Z,2.50
2023-04-27T13:55:30.324Z,2.50
2023-04-27T13:58:34.866Z,2.30
2023-04-27T14:01:38.175Z,2.20
2023-04-27T14:04:41.268Z,2.07
2023-04-27T14:07:44.366Z,2.20
2023-04-27T14:10:47.734Z,2.40
2023-04-27T14:13:52.212Z,2.60
2023-04-27T14:16:55.402Z,2.60
2023-04-27T14:19:58.547Z,2.60
2023-04-27T14:23:02.024Z,2.83
2023-04-27T14:26:05.895Z,2.40
2023-04-27T14:29:10.373Z,2.47
2023-04-27T14:32:13.734Z,2.70
2023-04-27T14:35:16.936Z,2.43
2023-04-27T14:38:19.982Z,2.23
2023-04-27T14:41:23.041Z,2.80
2023-04-27T14:44:27.465Z,2.70
2023-04-27T14:47:30.616Z,3.70
2023-04-27T14:50:33.925Z,3.73
2023-04-27T14:53:37.007Z,3.50
2023-04-27T14:56:40.149Z,3.87
2023-04-27T14:59:44.647Z,3.93
2023-04-27T15:02:47.788Z,3.30
2023-04-27T15:05:51.649Z,4.23
2023-04-27T15:08:55.104Z,4.30
2023-04-27T15:11:58.233Z,4.00
2023-04-27T15:15:02.799Z,3.50
2023-04-27T15:18:06.196Z,3.80
2023-04-27T15:21:09.347Z,3.90
2023-04-27T15:24:12.417Z,4.33
2023-04-27T15:27:15.810Z,4.10
2023-04-27T15:30:20.240Z,4.83
2023-04-27T15:33:23.535Z,4.53
2023-04-27T15:36:28.457Z,4.80
2023-04-27T15:39:31.798Z,5.57
2023-04-27T15:42:34.931Z,4.20
2023-04-27T15:45:39.427Z,5.67
2023-04-27T15:48:42.571Z,5.90
2023-04-27T15:51:45.676Z,5.27
2023-04-27T15:54:48.887Z,4.97
2023-04-27T15:57:52.020Z,5.73
2023-04-27T16:00:56.550Z,5.10
2023-04-27T16:03:59.729Z,5.43
2023-04-27T16:07:02.860Z,4.60
2023-04-27T16:10:07.193Z,4.90
2023-04-27T16:13:10.432Z,4.77
2023-04-27T16:16:15.229Z,5.20
2023-04-27T16:19:19.178Z,5.20
2023-04-27T16:22:22.379Z,4.90
2023-04-27T16:25:25.437Z,5.07
2023-04-27T16:28:28.588Z,5.87
2023-04-27T16:31:33.382Z,5.00
2023-04-27T16:34:37.636Z,4.33
2023-04-27T16:37:40.837Z,4.47
2023-04-27T16:40:43.861Z,4.43
2023-04-27T16:43:46.939Z,4.30
2023-04-27T16:46:52.126Z,4.30
2023-04-27T16:50:06.965Z,4.40
2023-04-27T16:53:13.755Z,4.30
2023-04-27T16:56:16.833Z,4.17
2023-04-27T16:59:19.907Z,4.03
2023-04-27T17:02:25.672Z,4.03
2023-04-27T17:05:29.210Z,4.50
2023-04-27T17:08:32.294Z,4.13
2023-04-27T17:11:35.481Z,4.60
2023-04-27T17:14:38.601Z,4.50
2023-04-27T17:17:43.054Z,4.43
2023-04-27T17:20:46.186Z,4.73
2023-04-27T17:23:50.728Z,4.20
2023-04-27T17:26:53.802Z,4.77
2023-04-27T17:29:57.975Z,4.80
2023-04-27T17:33:03.308Z,4.40
2023-04-27T17:36:06.960Z,4.80
2023-04-27T17:39:09.997Z,4.60
2023-04-27T17:42:13.190Z,4.70
2023-04-27T17:45:16.523Z,4.87
2023-04-27T17:48:21.173Z,5.07
2023-04-27T17:51:24.515Z,4.80
2023-04-27T17:54:29.957Z,4.73
2023-04-27T17:57:33.638Z,4.80
2023-04-27T18:00:36.859Z,7.17
2023-04-27T18:03:42.198Z,5.77
2023-04-27T18:06:45.440Z,6.20
2023-04-27T18:09:48.508Z,5.00
2023-04-27T18:12:51.601Z,5.77
2023-04-27T18:15:54.707Z,5.57
2023-04-27T18:18:59.397Z,5.73
2023-04-27T18:22:03.469Z,6.70
2023-04-27T18:25:07.292Z,7.43
2023-04-27T18:28:11.183Z,8.17
2023-04-27T18:31:17.977Z,8.03
2023-04-27T18:34:22.419Z,9.47
2023-04-27T18:37:25.537Z,9.17
2023-04-27T18:40:28.634Z,9.20
2023-04-27T18:43:32.058Z,9.60
2023-04-27T18:46:35.365Z,6.67
2023-04-27T18:49:39.797Z,6.70
2023-04-27T18:52:42.818Z,6.40
2023-04-27T18:55:45.884Z,5.67
2023-04-27T18:58:49.179Z,6.43
2023-04-27T19:01:52.435Z,6.10
2023-04-27T19:05:11.518Z,6.50
2023-04-27T19:08:15.825Z,6.20
2023-04-27T19:11:22.389Z,6.30
2023-04-27T19:14:25.919Z,5.87
2023-04-27T19:17:29.066Z,6.73
2023-04-27T19:20:33.741Z,5.90
2023-04-27T19:23:36.905Z,6.73
2023-04-27T19:26:40.357Z,8.37
2023-04-27T19:29:51.402Z,8.67
2023-04-27T19:32:54.628Z,8.33
2023-04-27T19:35:59.240Z,8.07
2023-04-27T19:39:02.305Z,8.30
2023-04-27T19:42:05.530Z,7.93
2023-04-27T19:45:09.802Z,8.30
2023-04-27T19:48:12.940Z,8.00
2023-04-27T19:51:17.460Z,8.50
2023-04-27T19:54:20.509Z,8.07
2023-04-27T19:57:23.691Z,8.30
2023-04-27T20:00:26.942Z,7.47
2023-04-27T20:03:30.390Z,8.17
2023-04-27T20:06:35.187Z,7.90
2023-04-27T20:09:38.297Z,8.20
2023-04-27T20:12:55.236Z,8.40
2023-04-27T20:16:00.171Z,7.43
2023-04-27T20:19:05.345Z,7.70
2023-04-27T20:22:09.879Z,7.87
2023-04-27T20:25:14.736Z,7.30
2023-04-27T20:28:18.066Z,7.40
2023-04-27T20:31:21.393Z,7.70
2023-04-27T20:34:24.484Z,9.43
2023-04-27T20:37:29.316Z,11.27
2023-04-27T20:40:32.638Z,9.77
2023-04-27T20:43:39.179Z,8.20
2023-04-27T20:46:42.300Z,7.53
2023-04-27T20:49:45.411Z,8.37
2023-04-27T20:52:49.903Z,9.37
2023-04-27T20:55:53.132Z,10.40
2023-04-27T20:58:56.271Z,11.40
2023-04-27T21:01:59.371Z,11.97
2023-04-27T21:05:02.559Z,12.63
2023-04-27T21:08:07.158Z,13.00
2023-04-27T21:11:10.459Z,14.40
2023-04-27T21:14:13.684Z,15.37
2023-04-27T21:17:16.894Z,15.20
2023-04-27T21:20:20.277Z,15.40
2023-04-27T21:23:24.741Z,16.10
2023-04-27T21:26:27.861Z,16.10
2023-04-27T21:29:31.109Z,17.90
2023-04-27T21:32:34.269Z,16.73
2023-04-27T21:35:37.345Z,16.40
2023-04-27T21:38:41.913Z,18.37
2023-04-27T21:41:45.038Z,18.37
2023-04-27T21:44:48.056Z,17.03
2023-04-27T21:47:51.216Z,18.50
2023-04-27T21:50:54.414Z,17.70
2023-04-27T21:53:59.128Z,18.00
2023-04-27T21:57:02.320Z,17.10
2023-04-27T22:00:13.826Z,17.70
2023-04-27T22:03:17.667Z,17.27
2023-04-27T22:06:20.980Z,18.10
2023-04-27T22:09:25.588Z,17.80
2023-04-27T22:12:28.671Z,16.90
2023-04-27T22:15:31.770Z,18.23
2023-04-27T22:18:34.891Z,16.67
2023-04-27T22:21:37.937Z,17.00
2023-04-27T22:24:42.493Z,16.40
2023-04-27T22:27:45.789Z,16.40
2023-04-27T22:30:55.883Z,16.93
2023-04-27T22:33:59.776Z,15.80
2023-04-27T22:37:03.315Z,15.93
2023-04-27T22:40:09.838Z,14.10
2023-04-27T22:43:12.939Z,14.67
2023-04-27T22:46:16.025Z,15.67
2023-04-27T22:49:19.073Z,14.90
2023-04-27T22:52:24.663Z,15.13
2023-04-27T22:55:29.329Z,14.47
2023-04-27T22:58:32.498Z,14.90
2023-04-27T23:01:35.756Z,14.43
2023-04-27T23:04:41.185Z,13.67
2023-04-27T23:07:46.364Z,13.70
2023-04-27T23:10:51.124Z,13.23
2023-04-27T23:13:54.756Z,12.90
2023-04-27T23:16:57.906Z,13.20
2023-04-27T23:20:02.597Z,12.43
2023-04-27T23:23:06.300Z,12.00
2023-04-27T23:26:15.133Z,13.13
2023-04-27T23:29:18.157Z,12.83
2023-04-27T23:32:21.829Z,11.77
2023-04-27T23:35:24.962Z,11.80
2023-04-27T23:38:28.062Z,11.10
2023-04-27T23:41:32.458Z,12.03
2023-04-27T23:44:35.461Z,12.13
2023-04-27T23:47:38.683Z,10.33
2023-04-27T23:50:41.745Z,9.93
2023-04-27T23:53:44.757Z,10.00
2023-04-27T23:56:50.988Z,11.07
2023-04-27T23:59:54.054Z,10.10
